sensor_id;sensor_type;location;lat;lon;timestamp;P1;durP1;ratioP1;P2;durP2;ratioP2
25213;SDS011;13160;51.834;4.706;2023-07-13T00:01:39;12.32;;;2.55;;
25213;SDS011;13160;51.834;4.706;2023-07-13T00:04:07;8.57;;;2.40;;
25213;SDS011;13160;51.834;4.706;2023-07-13T00:06:36;10.63;;;2.33;;
25213;SDS011;13160;51.834;4.706;2023-07-13T00:09:05;8.95;;;2.15;;
25213;SDS011;13160;51.834;4.706;2023-07-13T00:11:34;10.23;;;2.75;;
25213;SDS011;13160;51.834;4.706;2023-07-13T00:14:02;11.50;;;2.50;;
25213;SDS011;13160;51.834;4.706;2023-07-13T00:16:32;10.27;;;2.40;;
25213;SDS011;13160;51.834;4.706;2023-07-13T00:19:02;10.30;;;2.30;;
25213;SDS011;13160;51.834;4.706;2023-07-13T00:21:31;9.43;;;2.53;;
25213;SDS011;13160;51.834;4.706;2023-07-13T00:24:00;8.13;;;2.28;;
25213;SDS011;13160;51.834;4.706;2023-07-13T00:26:30;15.65;;;2.88;;
25213;SDS011;13160;51.834;4.706;2023-07-13T00:29:00;17.38;;;2.53;;
25213;SDS011;13160;51.834;4.706;2023-07-13T00:31:28;8.93;;;2.60;;
25213;SDS011;13160;51.834;4.706;2023-07-13T00:33:56;12.57;;;2.45;;
25213;SDS011;13160;51.834;4.706;2023-07-13T00:36:25;10.25;;;2.47;;
25213;SDS011;13160;51.834;4.706;2023-07-13T00:38:53;15.07;;;2.60;;
25213;SDS011;13160;51.834;4.706;2023-07-13T00:41:22;10.18;;;2.47;;
25213;SDS011;13160;51.834;4.706;2023-07-13T00:43:52;10.18;;;2.20;;
25213;SDS011;13160;51.834;4.706;2023-07-13T00:46:22;11.65;;;2.33;;
25213;SDS011;13160;51.834;4.706;2023-07-13T00:48:53;18.02;;;3.30;;
25213;SDS011;13160;51.834;4.706;2023-07-13T00:51:30;14.45;;;2.58;;
25213;SDS011;13160;51.834;4.706;2023-07-13T00:54:05;11.75;;;3.03;;
25213;SDS011;13160;51.834;4.706;2023-07-13T00:56:38;15.23;;;3.60;;
25213;SDS011;13160;51.834;4.706;2023-07-13T00:59:09;13.50;;;3.25;;
25213;SDS011;13160;51.834;4.706;2023-07-13T01:01:41;15.05;;;3.17;;
25213;SDS011;13160;51.834;4.706;2023-07-13T01:04:09;15.27;;;3.00;;
25213;SDS011;13160;51.834;4.706;2023-07-13T01:06:40;13.18;;;3.45;;
25213;SDS011;13160;51.834;4.706;2023-07-13T01:09:10;10.70;;;3.42;;
25213;SDS011;13160;51.834;4.706;2023-07-13T01:11:40;10.32;;;2.70;;
25213;SDS011;13160;51.834;4.706;2023-07-13T01:14:12;11.38;;;2.88;;
25213;SDS011;13160;51.834;4.706;2023-07-13T01:16:41;12.55;;;2.88;;
25213;SDS011;13160;51.834;4.706;2023-07-13T01:19:18;14.55;;;3.05;;
25213;SDS011;13160;51.834;4.706;2023-07-13T01:22:05;8.88;;;2.92;;
25213;SDS011;13160;51.834;4.706;2023-07-13T01:24:39;18.98;;;3.55;;
25213;SDS011;13160;51.834;4.706;2023-07-13T01:27:09;15.13;;;3.17;;
25213;SDS011;13160;51.834;4.706;2023-07-13T01:29:41;11.60;;;2.90;;
25213;SDS011;13160;51.834;4.706;2023-07-13T01:32:14;12.55;;;3.42;;
25213;SDS011;13160;51.834;4.706;2023-07-13T01:34:51;19.50;;;3.28;;
25213;SDS011;13160;51.834;4.706;2023-07-13T01:37:23;16.98;;;3.40;;
25213;SDS011;13160;51.834;4.706;2023-07-13T01:39:52;17.00;;;3.38;;
25213;SDS011;13160;51.834;4.706;2023-07-13T01:42:21;15.70;;;3.30;;
25213;SDS011;13160;51.834;4.706;2023-07-13T01:44:49;12.07;;;3.28;;
25213;SDS011;13160;51.834;4.706;2023-07-13T01:47:17;13.38;;;3.25;;
25213;SDS011;13160;51.834;4.706;2023-07-13T01:49:45;12.13;;;3.40;;
25213;SDS011;13160;51.834;4.706;2023-07-13T01:52:14;17.98;;;3.35;;
25213;SDS011;13160;51.834;4.706;2023-07-13T01:54:43;17.95;;;3.38;;
25213;SDS011;13160;51.834;4.706;2023-07-13T01:57:12;11.00;;;2.78;;
25213;SDS011;13160;51.834;4.706;2023-07-13T01:59:40;14.05;;;3.22;;
25213;SDS011;13160;51.834;4.706;2023-07-13T02:02:09;16.00;;;3.63;;
25213;SDS011;13160;51.834;4.706;2023-07-13T02:04:38;17.67;;;3.80;;
25213;SDS011;13160;51.834;4.706;2023-07-13T02:07:07;13.57;;;3.45;;
25213;SDS011;13160;51.834;4.706;2023-07-13T02:09:37;14.65;;;3.70;;
25213;SDS011;13160;51.834;4.706;2023-07-13T02:12:07;22.90;;;3.63;;
25213;SDS011;13160;51.834;4.706;2023-07-13T02:14:36;12.40;;;4.03;;
25213;SDS011;13160;51.834;4.706;2023-07-13T02:17:04;15.00;;;3.40;;
25213;SDS011;13160;51.834;4.706;2023-07-13T02:19:33;22.33;;;4.38;;
25213;SDS011;13160;51.834;4.706;2023-07-13T02:22:01;15.60;;;3.72;;
25213;SDS011;13160;51.834;4.706;2023-07-13T02:24:30;15.15;;;3.85;;
25213;SDS011;13160;51.834;4.706;2023-07-13T02:26:58;19.90;;;3.75;;
25213;SDS011;13160;51.834;4.706;2023-07-13T02:29:28;15.57;;;3.30;;
25213;SDS011;13160;51.834;4.706;2023-07-13T02:31:56;22.65;;;5.97;;
25213;SDS011;13160;51.834;4.706;2023-07-13T02:34:25;14.77;;;4.15;;
25213;SDS011;13160;51.834;4.706;2023-07-13T02:36:56;15.82;;;3.83;;
25213;SDS011;13160;51.834;4.706;2023-07-13T02:39:24;21.27;;;4.28;;
25213;SDS011;13160;51.834;4.706;2023-07-13T02:41:52;22.63;;;4.55;;
25213;SDS011;13160;51.834;4.706;2023-07-13T02:44:21;24.88;;;4.90;;
25213;SDS011;13160;51.834;4.706;2023-07-13T02:46:51;22.65;;;4.85;;
25213;SDS011;13160;51.834;4.706;2023-07-13T02:49:19;15.95;;;4.03;;
25213;SDS011;13160;51.834;4.706;2023-07-13T02:51:48;27.83;;;5.35;;
25213;SDS011;13160;51.834;4.706;2023-07-13T02:54:18;19.48;;;4.78;;
25213;SDS011;13160;51.834;4.706;2023-07-13T02:56:47;19.38;;;4.35;;
25213;SDS011;13160;51.834;4.706;2023-07-13T02:59:16;20.70;;;4.43;;
25213;SDS011;13160;51.834;4.706;2023-07-13T03:01:44;19.80;;;5.03;;
25213;SDS011;13160;51.834;4.706;2023-07-13T03:04:13;19.75;;;4.80;;
25213;SDS011;13160;51.834;4.706;2023-07-13T03:06:46;19.40;;;4.78;;
25213;SDS011;13160;51.834;4.706;2023-07-13T03:09:14;26.17;;;5.47;;
25213;SDS011;13160;51.834;4.706;2023-07-13T03:11:42;21.83;;;4.50;;
25213;SDS011;13160;51.834;4.706;2023-07-13T03:14:11;21.20;;;5.30;;
25213;SDS011;13160;51.834;4.706;2023-07-13T03:16:40;26.80;;;5.20;;
25213;SDS011;13160;51.834;4.706;2023-07-13T03:19:08;14.27;;;4.90;;
25213;SDS011;13160;51.834;4.706;2023-07-13T03:21:38;23.65;;;5.18;;
25213;SDS011;13160;51.834;4.706;2023-07-13T03:24:07;31.42;;;5.55;;
25213;SDS011;13160;51.834;4.706;2023-07-13T03:26:35;19.65;;;4.97;;
25213;SDS011;13160;51.834;4.706;2023-07-13T03:29:04;33.72;;;5.93;;
25213;SDS011;13160;51.834;4.706;2023-07-13T03:31:33;26.67;;;5.63;;
25213;SDS011;13160;51.834;4.706;2023-07-13T03:34:03;25.15;;;5.63;;
25213;SDS011;13160;51.834;4.706;2023-07-13T03:36:32;25.83;;;5.80;;
25213;SDS011;13160;51.834;4.706;2023-07-13T03:39:02;26.92;;;6.43;;
25213;SDS011;13160;51.834;4.706;2023-07-13T03:41:35;19.75;;;5.90;;
25213;SDS011;13160;51.834;4.706;2023-07-13T03:44:03;24.38;;;5.68;;
25213;SDS011;13160;51.834;4.706;2023-07-13T03:46:32;21.52;;;6.15;;
25213;SDS011;13160;51.834;4.706;2023-07-13T03:49:01;20.77;;;5.13;;
25213;SDS011;13160;51.834;4.706;2023-07-13T03:51:30;23.55;;;5.50;;
25213;SDS011;13160;51.834;4.706;2023-07-13T03:53:59;27.02;;;6.05;;
25213;SDS011;13160;51.834;4.706;2023-07-13T03:56:30;24.80;;;5.60;;
25213;SDS011;13160;51.834;4.706;2023-07-13T03:58:59;27.33;;;5.72;;
25213;SDS011;13160;51.834;4.706;2023-07-13T04:01:28;18.17;;;5.28;;
25213;SDS011;13160;51.834;4.706;2023-07-13T04:03:57;25.75;;;5.97;;
25213;SDS011;13160;51.834;4.706;2023-07-13T04:06:29;21.95;;;6.00;;
25213;SDS011;13160;51.834;4.706;2023-07-13T04:08:58;28.20;;;5.85;;
25213;SDS011;13160;51.834;4.706;2023-07-13T04:11:31;26.83;;;6.07;;
25213;SDS011;13160;51.834;4.706;2023-07-13T04:14:00;20.02;;;6.47;;
25213;SDS011;13160;51.834;4.706;2023-07-13T04:16:28;24.20;;;6.95;;
25213;SDS011;13160;51.834;4.706;2023-07-13T04:18:57;21.25;;;6.32;;
25213;SDS011;13160;51.834;4.706;2023-07-13T04:21:27;24.42;;;6.63;;
25213;SDS011;13160;51.834;4.706;2023-07-13T04:23:57;27.88;;;6.47;;
25213;SDS011;13160;51.834;4.706;2023-07-13T04:26:26;27.30;;;6.88;;
25213;SDS011;13160;51.834;4.706;2023-07-13T04:28:56;18.88;;;5.80;;
25213;SDS011;13160;51.834;4.706;2023-07-13T04:31:24;27.45;;;6.70;;
25213;SDS011;13160;51.834;4.706;2023-07-13T04:33:52;37.97;;;7.68;;
25213;SDS011;13160;51.834;4.706;2023-07-13T04:36:21;24.95;;;6.47;;
25213;SDS011;13160;51.834;4.706;2023-07-13T04:38:49;26.70;;;6.60;;
25213;SDS011;13160;51.834;4.706;2023-07-13T04:41:17;23.98;;;6.53;;
25213;SDS011;13160;51.834;4.706;2023-07-13T04:43:46;32.63;;;7.82;;
25213;SDS011;13160;51.834;4.706;2023-07-13T04:46:16;21.98;;;6.88;;
25213;SDS011;13160;51.834;4.706;2023-07-13T04:48:46;29.17;;;6.88;;
25213;SDS011;13160;51.834;4.706;2023-07-13T04:51:17;20.73;;;6.55;;
25213;SDS011;13160;51.834;4.706;2023-07-13T04:53:45;21.92;;;6.88;;
25213;SDS011;13160;51.834;4.706;2023-07-13T04:56:14;31.85;;;7.45;;
25213;SDS011;13160;51.834;4.706;2023-07-13T04:58:42;20.90;;;6.50;;
25213;SDS011;13160;51.834;4.706;2023-07-13T05:01:10;21.50;;;6.20;;
25213;SDS011;13160;51.834;4.706;2023-07-13T05:03:41;29.77;;;7.15;;
25213;SDS011;13160;51.834;4.706;2023-07-13T05:06:10;27.85;;;6.80;;
25213;SDS011;13160;51.834;4.706;2023-07-13T05:08:40;20.08;;;6.38;;
25213;SDS011;13160;51.834;4.706;2023-07-13T05:11:08;38.08;;;8.20;;
25213;SDS011;13160;51.834;4.706;2023-07-13T05:13:37;26.20;;;7.55;;
25213;SDS011;13160;51.834;4.706;2023-07-13T05:16:06;27.77;;;7.70;;
25213;SDS011;13160;51.834;4.706;2023-07-13T05:18:35;29.38;;;7.45;;
25213;SDS011;13160;51.834;4.706;2023-07-13T05:21:10;21.48;;;7.20;;
25213;SDS011;13160;51.834;4.706;2023-07-13T05:23:40;23.08;;;7.35;;
25213;SDS011;13160;51.834;4.706;2023-07-13T05:26:09;18.00;;;6.95;;
25213;SDS011;13160;51.834;4.706;2023-07-13T05:28:38;24.67;;;7.53;;
25213;SDS011;13160;51.834;4.706;2023-07-13T05:31:06;36.42;;;9.18;;
25213;SDS011;13160;51.834;4.706;2023-07-13T05:33:36;26.17;;;8.38;;
25213;SDS011;13160;51.834;4.706;2023-07-13T05:36:05;29.67;;;8.65;;
25213;SDS011;13160;51.834;4.706;2023-07-13T05:38:35;23.58;;;7.40;;
25213;SDS011;13160;51.834;4.706;2023-07-13T05:41:03;30.48;;;8.13;;
25213;SDS011;13160;51.834;4.706;2023-07-13T05:43:32;23.42;;;7.50;;
25213;SDS011;13160;51.834;4.706;2023-07-13T05:46:01;27.73;;;8.77;;
25213;SDS011;13160;51.834;4.706;2023-07-13T05:48:29;28.98;;;8.48;;
25213;SDS011;13160;51.834;4.706;2023-07-13T05:50:58;23.48;;;8.52;;
25213;SDS011;13160;51.834;4.706;2023-07-13T05:53:26;23.02;;;8.45;;
25213;SDS011;13160;51.834;4.706;2023-07-13T05:55:56;24.30;;;7.80;;
25213;SDS011;13160;51.834;4.706;2023-07-13T05:58:28;27.63;;;9.75;;
25213;SDS011;13160;51.834;4.706;2023-07-13T06:00:59;30.50;;;8.60;;
25213;SDS011;13160;51.834;4.706;2023-07-13T06:03:30;28.58;;;9.35;;
25213;SDS011;13160;51.834;4.706;2023-07-13T06:05:58;32.90;;;11.60;;
25213;SDS011;13160;51.834;4.706;2023-07-13T06:08:28;24.23;;;9.98;;
25213;SDS011;13160;51.834;4.706;2023-07-13T06:11:02;35.13;;;11.80;;
25213;SDS011;13160;51.834;4.706;2023-07-13T06:13:33;30.75;;;10.13;;
25213;SDS011;13160;51.834;4.706;2023-07-13T06:16:02;27.20;;;10.43;;
25213;SDS011;13160;51.834;4.706;2023-07-13T06:18:31;29.67;;;11.07;;
25213;SDS011;13160;51.834;4.706;2023-07-13T06:21:01;26.20;;;11.65;;
25213;SDS011;13160;51.834;4.706;2023-07-13T06:23:35;23.60;;;10.50;;
25213;SDS011;13160;51.834;4.706;2023-07-13T06:26:05;32.65;;;10.32;;
25213;SDS011;13160;51.834;4.706;2023-07-13T06:28:34;31.20;;;11.27;;
25213;SDS011;13160;51.834;4.706;2023-07-13T06:31:06;28.15;;;11.35;;
25213;SDS011;13160;51.834;4.706;2023-07-13T06:33:36;27.73;;;11.15;;
25213;SDS011;13160;51.834;4.706;2023-07-13T06:36:06;27.65;;;10.60;;
25213;SDS011;13160;51.834;4.706;2023-07-13T06:38:38;31.83;;;10.93;;
25213;SDS011;13160;51.834;4.706;2023-07-13T06:41:08;23.88;;;9.73;;
25213;SDS011;13160;51.834;4.706;2023-07-13T06:43:37;23.90;;;9.70;;
25213;SDS011;13160;51.834;4.706;2023-07-13T06:46:06;23.75;;;8.68;;
25213;SDS011;13160;51.834;4.706;2023-07-13T06:48:34;22.63;;;9.73;;
25213;SDS011;13160;51.834;4.706;2023-07-13T06:51:03;25.10;;;9.63;;
25213;SDS011;13160;51.834;4.706;2023-07-13T06:53:31;28.65;;;8.65;;
25213;SDS011;13160;51.834;4.706;2023-07-13T06:56:00;25.52;;;7.10;;
25213;SDS011;13160;51.834;4.706;2023-07-13T06:58:29;17.15;;;5.43;;
25213;SDS011;13160;51.834;4.706;2023-07-13T07:00:57;19.25;;;5.18;;
25213;SDS011;13160;51.834;4.706;2023-07-13T07:03:26;22.33;;;6.93;;
25213;SDS011;13160;51.834;4.706;2023-07-13T07:05:59;18.77;;;5.63;;
25213;SDS011;13160;51.834;4.706;2023-07-13T07:08:29;15.75;;;5.45;;
25213;SDS011;13160;51.834;4.706;2023-07-13T07:10:57;20.40;;;5.95;;
25213;SDS011;13160;51.834;4.706;2023-07-13T07:13:25;13.05;;;3.92;;
25213;SDS011;13160;51.834;4.706;2023-07-13T07:15:57;12.18;;;3.80;;
25213;SDS011;13160;51.834;4.706;2023-07-13T07:18:26;12.93;;;3.83;;
25213;SDS011;13160;51.834;4.706;2023-07-13T07:20:54;13.30;;;3.80;;
25213;SDS011;13160;51.834;4.706;2023-07-13T07:23:23;19.20;;;3.90;;
25213;SDS011;13160;51.834;4.706;2023-07-13T07:25:51;17.40;;;3.92;;
25213;SDS011;13160;51.834;4.706;2023-07-13T07:28:20;15.07;;;3.75;;
25213;SDS011;13160;51.834;4.706;2023-07-13T07:30:52;12.20;;;3.95;;
25213;SDS011;13160;51.834;4.706;2023-07-13T07:33:26;14.88;;;4.13;;
25213;SDS011;13160;51.834;4.706;2023-07-13T07:35:54;14.10;;;4.43;;
25213;SDS011;13160;51.834;4.706;2023-07-13T07:38:26;14.57;;;5.05;;
25213;SDS011;13160;51.834;4.706;2023-07-13T07:40:54;12.38;;;4.75;;
25213;SDS011;13160;51.834;4.706;2023-07-13T07:43:25;14.07;;;4.47;;
25213;SDS011;13160;51.834;4.706;2023-07-13T07:45:54;15.93;;;5.22;;
25213;SDS011;13160;51.834;4.706;2023-07-13T07:48:22;18.45;;;5.10;;
25213;SDS011;13160;51.834;4.706;2023-07-13T07:50:52;14.50;;;4.97;;
25213;SDS011;13160;51.834;4.706;2023-07-13T07:53:21;14.82;;;4.45;;
25213;SDS011;13160;51.834;4.706;2023-07-13T07:55:49;14.57;;;4.07;;
25213;SDS011;13160;51.834;4.706;2023-07-13T07:58:21;11.75;;;4.50;;
25213;SDS011;13160;51.834;4.706;2023-07-13T08:00:52;15.95;;;4.68;;
25213;SDS011;13160;51.834;4.706;2023-07-13T08:03:23;18.10;;;5.07;;
25213;SDS011;13160;51.834;4.706;2023-07-13T08:05:56;16.52;;;4.45;;
25213;SDS011;13160;51.834;4.706;2023-07-13T08:08:44;16.13;;;5.03;;
25213;SDS011;13160;51.834;4.706;2023-07-13T08:11:13;10.63;;;3.60;;
25213;SDS011;13160;51.834;4.706;2023-07-13T08:13:44;10.32;;;3.60;;
25213;SDS011;13160;51.834;4.706;2023-07-13T08:16:12;12.70;;;4.03;;
25213;SDS011;13160;51.834;4.706;2023-07-13T08:18:41;9.90;;;3.80;;
25213;SDS011;13160;51.834;4.706;2023-07-13T08:21:10;11.05;;;4.03;;
25213;SDS011;13160;51.834;4.706;2023-07-13T08:23:39;65.68;;;10.20;;
25213;SDS011;13160;51.834;4.706;2023-07-13T08:26:07;14.35;;;4.47;;
25213;SDS011;13160;51.834;4.706;2023-07-13T08:28:37;17.92;;;4.72;;
25213;SDS011;13160;51.834;4.706;2023-07-13T08:31:06;17.33;;;5.13;;
25213;SDS011;13160;51.834;4.706;2023-07-13T08:33:36;15.15;;;4.53;;
25213;SDS011;13160;51.834;4.706;2023-07-13T08:36:07;14.38;;;4.32;;
25213;SDS011;13160;51.834;4.706;2023-07-13T08:38:37;17.65;;;4.72;;
25213;SDS011;13160;51.834;4.706;2023-07-13T08:41:12;20.13;;;4.72;;
25213;SDS011;13160;51.834;4.706;2023-07-13T08:43:44;13.40;;;3.88;;
25213;SDS011;13160;51.834;4.706;2023-07-13T08:46:17;12.50;;;3.80;;
25213;SDS011;13160;51.834;4.706;2023-07-13T08:48:56;14.05;;;4.07;;
25213;SDS011;13160;51.834;4.706;2023-07-13T08:51:37;12.60;;;3.20;;
25213;SDS011;13160;51.834;4.706;2023-07-13T08:54:20;9.93;;;3.05;;
25213;SDS011;13160;51.834;4.706;2023-07-13T08:56:54;18.73;;;3.83;;
25213;SDS011;13160;51.834;4.706;2023-07-13T08:59:24;9.68;;;3.72;;
25213;SDS011;13160;51.834;4.706;2023-07-13T09:01:59;8.02;;;2.88;;
25213;SDS011;13160;51.834;4.706;2023-07-13T09:04:49;11.63;;;3.45;;
25213;SDS011;13160;51.834;4.706;2023-07-13T09:07:24;8.27;;;2.72;;
25213;SDS011;13160;51.834;4.706;2023-07-13T09:10:12;7.38;;;3.00;;
25213;SDS011;13160;51.834;4.706;2023-07-13T09:12:47;9.60;;;2.85;;
25213;SDS011;13160;51.834;4.706;2023-07-13T09:15:28;8.40;;;2.85;;
25213;SDS011;13160;51.834;4.706;2023-07-13T09:18:01;5.40;;;2.50;;
25213;SDS011;13160;51.834;4.706;2023-07-13T09:20:37;7.43;;;3.08;;
25213;SDS011;13160;51.834;4.706;2023-07-13T09:23:16;6.97;;;2.83;;
25213;SDS011;13160;51.834;4.706;2023-07-13T09:25:51;11.85;;;2.85;;
25213;SDS011;13160;51.834;4.706;2023-07-13T09:28:27;7.82;;;2.40;;
25213;SDS011;13160;51.834;4.706;2023-07-13T09:31:06;7.15;;;2.67;;
25213;SDS011;13160;51.834;4.706;2023-07-13T09:33:40;8.55;;;2.78;;
25213;SDS011;13160;51.834;4.706;2023-07-13T09:36:16;7.93;;;2.38;;
25213;SDS011;13160;51.834;4.706;2023-07-13T09:38:58;6.85;;;2.60;;
25213;SDS011;13160;51.834;4.706;2023-07-13T09:41:34;10.15;;;2.72;;
25213;SDS011;13160;51.834;4.706;2023-07-13T09:44:09;7.13;;;2.28;;
25213;SDS011;13160;51.834;4.706;2023-07-13T09:46:43;9.70;;;2.42;;
25213;SDS011;13160;51.834;4.706;2023-07-13T09:49:14;8.20;;;3.00;;
25213;SDS011;13160;51.834;4.706;2023-07-13T09:51:42;6.85;;;2.58;;
25213;SDS011;13160;51.834;4.706;2023-07-13T09:54:18;7.18;;;2.47;;
25213;SDS011;13160;51.834;4.706;2023-07-13T09:56:54;11.38;;;3.00;;
25213;SDS011;13160;51.834;4.706;2023-07-13T09:59:24;6.90;;;2.17;;
25213;SDS011;13160;51.834;4.706;2023-07-13T10:01:57;6.15;;;2.45;;
25213;SDS011;13160;51.834;4.706;2023-07-13T10:04:30;7.95;;;2.42;;
25213;SDS011;13160;51.834;4.706;2023-07-13T10:07:07;9.38;;;2.92;;
25213;SDS011;13160;51.834;4.706;2023-07-13T10:09:55;12.40;;;3.72;;
25213;SDS011;13160;51.834;4.706;2023-07-13T10:12:29;8.35;;;2.80;;
25213;SDS011;13160;51.834;4.706;2023-07-13T10:15:03;6.45;;;2.38;;
25213;SDS011;13160;51.834;4.706;2023-07-13T10:17:50;10.63;;;3.17;;
25213;SDS011;13160;51.834;4.706;2023-07-13T10:20:20;12.40;;;3.65;;
25213;SDS011;13160;51.834;4.706;2023-07-13T10:22:50;6.60;;;3.00;;
25213;SDS011;13160;51.834;4.706;2023-07-13T10:25:23;8.80;;;3.15;;
25213;SDS011;13160;51.834;4.706;2023-07-13T10:27:56;8.45;;;3.55;;
25213;SDS011;13160;51.834;4.706;2023-07-13T10:30:32;9.68;;;3.25;;
25213;SDS011;13160;51.834;4.706;2023-07-13T10:33:09;9.85;;;3.47;;
25213;SDS011;13160;51.834;4.706;2023-07-13T10:35:40;7.72;;;3.38;;
25213;SDS011;13160;51.834;4.706;2023-07-13T10:38:13;9.10;;;3.40;;
25213;SDS011;13160;51.834;4.706;2023-07-13T10:40:48;11.40;;;3.33;;
25213;SDS011;13160;51.834;4.706;2023-07-13T10:43:27;6.10;;;2.08;;
25213;SDS011;13160;51.834;4.706;2023-07-13T10:46:03;5.95;;;2.20;;
25213;SDS011;13160;51.834;4.706;2023-07-13T10:48:34;4.40;;;2.05;;
25213;SDS011;13160;51.834;4.706;2023-07-13T10:51:05;5.80;;;2.35;;
25213;SDS011;13160;51.834;4.706;2023-07-13T10:53:35;4.90;;;2.03;;
25213;SDS011;13160;51.834;4.706;2023-07-13T10:56:14;4.30;;;1.80;;
25213;SDS011;13160;51.834;4.706;2023-07-13T10:59:01;5.15;;;2.05;;
25213;SDS011;13160;51.834;4.706;2023-07-13T11:01:39;4.68;;;2.00;;
25213;SDS011;13160;51.834;4.706;2023-07-13T11:04:16;3.97;;;1.75;;
25213;SDS011;13160;51.834;4.706;2023-07-13T11:06:48;4.22;;;1.83;;
25213;SDS011;13160;51.834;4.706;2023-07-13T11:12:25;9.35;;;2.80;;
25213;SDS011;13160;51.834;4.706;2023-07-13T11:15:29;5.75;;;2.13;;
25213;SDS011;13160;51.834;4.706;2023-07-13T11:18:19;4.57;;;2.00;;
25213;SDS011;13160;51.834;4.706;2023-07-13T11:20:51;6.25;;;2.42;;
25213;SDS011;13160;51.834;4.706;2023-07-13T11:24:01;6.20;;;2.30;;
25213;SDS011;13160;51.834;4.706;2023-07-13T11:26:37;7.35;;;2.45;;
25213;SDS011;13160;51.834;4.706;2023-07-13T11:29:18;18.20;;;3.33;;
25213;SDS011;13160;51.834;4.706;2023-07-13T11:32:03;6.35;;;2.30;;
25213;SDS011;13160;51.834;4.706;2023-07-13T11:34:53;7.07;;;2.63;;
25213;SDS011;13160;51.834;4.706;2023-07-13T11:37:22;6.35;;;2.38;;
25213;SDS011;13160;51.834;4.706;2023-07-13T11:39:52;5.22;;;2.28;;
25213;SDS011;13160;51.834;4.706;2023-07-13T11:42:21;4.18;;;2.25;;
25213;SDS011;13160;51.834;4.706;2023-07-13T11:44:50;5.82;;;2.40;;
25213;SDS011;13160;51.834;4.706;2023-07-13T11:47:39;6.50;;;2.63;;
25213;SDS011;13160;51.834;4.706;2023-07-13T11:50:16;5.88;;;2.20;;
25213;SDS011;13160;51.834;4.706;2023-07-13T11:52:48;8.52;;;2.60;;
25213;SDS011;13160;51.834;4.706;2023-07-13T11:55:20;8.13;;;2.70;;
25213;SDS011;13160;51.834;4.706;2023-07-13T11:57:52;8.82;;;2.75;;
25213;SDS011;13160;51.834;4.706;2023-07-13T12:00:26;8.32;;;3.00;;
25213;SDS011;13160;51.834;4.706;2023-07-13T12:03:01;8.55;;;2.72;;
25213;SDS011;13160;51.834;4.706;2023-07-13T12:05:31;7.47;;;2.88;;
25213;SDS011;13160;51.834;4.706;2023-07-13T12:08:08;5.72;;;2.45;;
25213;SDS011;13160;51.834;4.706;2023-07-13T12:10:55;7.68;;;2.80;;
25213;SDS011;13160;51.834;4.706;2023-07-13T12:13:26;5.82;;;2.40;;
25213;SDS011;13160;51.834;4.706;2023-07-13T12:15:56;6.70;;;2.50;;
25213;SDS011;13160;51.834;4.706;2023-07-13T12:18:29;5.57;;;2.35;;
25213;SDS011;13160;51.834;4.706;2023-07-13T12:21:00;6.45;;;2.30;;
25213;SDS011;13160;51.834;4.706;2023-07-13T12:23:30;6.50;;;1.90;;
25213;SDS011;13160;51.834;4.706;2023-07-13T12:26:01;7.78;;;2.30;;
25213;SDS011;13160;51.834;4.706;2023-07-13T12:28:32;6.53;;;2.22;;
25213;SDS011;13160;51.834;4.706;2023-07-13T12:31:04;7.03;;;2.13;;
25213;SDS011;13160;51.834;4.706;2023-07-13T12:33:39;6.57;;;2.25;;
25213;SDS011;13160;51.834;4.706;2023-07-13T12:36:08;7.35;;;2.60;;
25213;SDS011;13160;51.834;4.706;2023-07-13T12:38:40;6.85;;;2.58;;
25213;SDS011;13160;51.834;4.706;2023-07-13T12:41:08;6.97;;;2.10;;
25213;SDS011;13160;51.834;4.706;2023-07-13T12:43:37;4.47;;;1.98;;
25213;SDS011;13160;51.834;4.706;2023-07-13T12:46:14;4.95;;;1.70;;
25213;SDS011;13160;51.834;4.706;2023-07-13T12:48:50;7.35;;;2.45;;
25213;SDS011;13160;51.834;4.706;2023-07-13T12:51:38;5.82;;;1.80;;
25213;SDS011;13160;51.834;4.706;2023-07-13T12:54:12;7.82;;;1.85;;
25213;SDS011;13160;51.834;4.706;2023-07-13T12:56:45;4.82;;;1.75;;
25213;SDS011;13160;51.834;4.706;2023-07-13T12:59:20;4.70;;;2.08;;
25213;SDS011;13160;51.834;4.706;2023-07-13T13:01:49;4.60;;;1.95;;
25213;SDS011;13160;51.834;4.706;2023-07-13T13:04:21;7.35;;;2.08;;
25213;SDS011;13160;51.834;4.706;2023-07-13T13:07:00;7.20;;;1.77;;
25213;SDS011;13160;51.834;4.706;2023-07-13T13:09:30;5.03;;;2.05;;
25213;SDS011;13160;51.834;4.706;2023-07-13T13:11:58;4.53;;;1.92;;
25213;SDS011;13160;51.834;4.706;2023-07-13T13:14:27;6.43;;;1.70;;
25213;SDS011;13160;51.834;4.706;2023-07-13T13:16:56;6.13;;;1.90;;
25213;SDS011;13160;51.834;4.706;2023-07-13T13:19:27;5.40;;;2.10;;
25213;SDS011;13160;51.834;4.706;2023-07-13T13:21:57;5.68;;;2.15;;
25213;SDS011;13160;51.834;4.706;2023-07-13T13:24:27;6.07;;;2.05;;
25213;SDS011;13160;51.834;4.706;2023-07-13T13:26:56;5.07;;;1.80;;
25213;SDS011;13160;51.834;4.706;2023-07-13T13:29:24;7.40;;;2.25;;
25213;SDS011;13160;51.834;4.706;2023-07-13T13:31:53;6.90;;;2.53;;
25213;SDS011;13160;51.834;4.706;2023-07-13T13:34:23;5.32;;;2.22;;
25213;SDS011;13160;51.834;4.706;2023-07-13T13:36:54;6.13;;;2.08;;
25213;SDS011;13160;51.834;4.706;2023-07-13T13:39:28;5.32;;;2.20;;
25213;SDS011;13160;51.834;4.706;2023-07-13T13:42:02;8.52;;;2.60;;
25213;SDS011;13160;51.834;4.706;2023-07-13T13:44:32;4.88;;;2.33;;
25213;SDS011;13160;51.834;4.706;2023-07-13T13:47:01;5.82;;;2.05;;
25213;SDS011;13160;51.834;4.706;2023-07-13T13:49:32;6.63;;;2.00;;
25213;SDS011;13160;51.834;4.706;2023-07-13T13:52:03;7.28;;;2.38;;
25213;SDS011;13160;51.834;4.706;2023-07-13T13:54:33;5.38;;;2.00;;
25213;SDS011;13160;51.834;4.706;2023-07-13T13:57:01;5.70;;;2.00;;
25213;SDS011;13160;51.834;4.706;2023-07-13T13:59:33;5.10;;;2.10;;
25213;SDS011;13160;51.834;4.706;2023-07-13T14:02:11;6.82;;;2.20;;
25213;SDS011;13160;51.834;4.706;2023-07-13T14:04:52;5.70;;;2.15;;
25213;SDS011;13160;51.834;4.706;2023-07-13T14:07:29;7.43;;;2.13;;
25213;SDS011;13160;51.834;4.706;2023-07-13T14:09:58;6.55;;;2.17;;
25213;SDS011;13160;51.834;4.706;2023-07-13T14:12:27;6.22;;;2.20;;
25213;SDS011;13160;51.834;4.706;2023-07-13T14:14:57;6.07;;;2.20;;
25213;SDS011;13160;51.834;4.706;2023-07-13T14:17:26;5.30;;;2.08;;
25213;SDS011;13160;51.834;4.706;2023-07-13T14:19:57;6.07;;;2.20;;
25213;SDS011;13160;51.834;4.706;2023-07-13T14:22:26;7.18;;;2.30;;
25213;SDS011;13160;51.834;4.706;2023-07-13T14:24:55;6.53;;;2.20;;
25213;SDS011;13160;51.834;4.706;2023-07-13T14:27:26;6.38;;;2.20;;
25213;SDS011;13160;51.834;4.706;2023-07-13T14:29:59;4.97;;;1.92;;
25213;SDS011;13160;51.834;4.706;2023-07-13T14:32:32;6.13;;;1.70;;
25213;SDS011;13160;51.834;4.706;2023-07-13T14:35:14;4.72;;;1.95;;
25213;SDS011;13160;51.834;4.706;2023-07-13T14:37:46;5.03;;;1.85;;
25213;SDS011;13160;51.834;4.706;2023-07-13T14:40:16;5.70;;;2.20;;
25213;SDS011;13160;51.834;4.706;2023-07-13T14:42:47;5.80;;;1.88;;
25213;SDS011;13160;51.834;4.706;2023-07-13T14:45:16;4.32;;;1.92;;
25213;SDS011;13160;51.834;4.706;2023-07-13T14:47:46;6.13;;;2.15;;
25213;SDS011;13160;51.834;4.706;2023-07-13T14:50:18;4.22;;;1.70;;
25213;SDS011;13160;51.834;4.706;2023-07-13T14:52:50;4.40;;;1.77;;
25213;SDS011;13160;51.834;4.706;2023-07-13T14:55:19;6.07;;;2.20;;
25213;SDS011;13160;51.834;4.706;2023-07-13T14:57:48;5.45;;;2.00;;
25213;SDS011;13160;51.834;4.706;2023-07-13T15:00:19;4.60;;;1.85;;
25213;SDS011;13160;51.834;4.706;2023-07-13T15:02:50;7.15;;;2.25;;
25213;SDS011;13160;51.834;4.706;2023-07-13T15:05:23;7.07;;;1.80;;
25213;SDS011;13160;51.834;4.706;2023-07-13T15:07:56;6.95;;;2.10;;